Baltica — 9HA2607 — position and weather

sailwx.info

Track history (hours):
 
Tides and Currents Weather Stations Pressure Air Temp Water Temp Dewpoint Dewpoint Depression Visibility Wind Speed Wind Dir Waves Ship Positions

Baltica

Last reported at 2014-Jul-24 19:33 UTC. Time now 2014-Jul-24 20:06 UTC.
Position N 58°30' E 021°22'.

Length 157 m; draft 6.6 m.

Type: Ship (hazmat cat A). MMSI: 215013000.

Date/timePositionNaut miles runAvg speedWind from/ knotsBaromVisibWave heightAir tempDewpointWater temp
2014-Jul-24 19:33N 58°30' E 021°22'1717.0
2014-Jul-24 18:33N 58°14' E 021°12'1817.1
2014-Jul-24 17:32N 57°57' E 021°01'1717.1
2014-Jul-24 16:33N 57°42' E 020°51'1717.0
2014-Jul-24 15:33N 57°26' E 020°40'1716.6
2014-Jul-24 14:34N 57°10' E 020°30'1717.1
2014-Jul-24 13:33N 56°54' E 020°20'1717.3
2014-Jul-24 12:34N 56°37' E 020°10'1717.2
2014-Jul-24 11:34N 56°21' E 019°59'1717.2
2014-Jul-24 10:33N 56°05' E 019°50'1717.2
2014-Jul-24 09:34N 55°49' E 019°40'1717.3
2014-Jul-24 08:34N 55°32' E 019°29'1717.3
2014-Jul-24 07:34N 55°16' E 019°19'1716.9
2014-Jul-24 06:33N 55°00' E 019°10'1717.1
2014-Jul-24 05:34N 54°44' E 019°00'1615.6
2014-Jul-24 04:34N 54°32' E 018°44'7 7.1
2014-Jul-24 03:33N 54°32' E 018°31'0 0.0
2014-Jul-24 02:32N 54°32' E 018°31'0 0.0
2014-Jul-24 01:32N 54°32' E 018°31'0 0.0
2014-Jul-24 00:32N 54°32' E 018°31'0 0.0
2014-Jul-23 23:32N 54°32' E 018°31'0 0.0
2014-Jul-23 22:32N 54°32' E 018°31'0 0.0
2014-Jul-23 21:32N 54°32' E 018°31'0 0.0
2014-Jul-23 20:32N 54°32' E 018°31'5 4.8
2014-Jul-23 19:33N 54°32' E 018°39'1414.3
2014-Jul-23 18:33N 54°42' E 018°57'1616.3
2014-Jul-23 17:33N 54°58' E 019°06'1616.4
2014-Jul-23 16:33N 55°13' E 019°15'1716.6
2014-Jul-23 15:33N 55°29' E 019°24'1616.3
2014-Jul-23 14:33N 55°44' E 019°33'1616.1
2014-Jul-23 13:33N 55°60' E 019°41'1616.3
2014-Jul-23 12:33N 56°15' E 019°50'1616.1
2014-Jul-23 11:33N 56°31' E 019°59'1616.0
2014-Jul-23 10:33N 56°46' E 020°08'1616.1
2014-Jul-23 09:33N 57°01' E 020°18'3216.2
2014-Jul-23 07:33N 57°32' E 020°36'1716.3
2014-Jul-23 06:31N 57°48' E 020°46'1516.0
2014-Jul-23 05:33N 58°03' E 020°55'3216.2
2014-Jul-23 03:33N 58°33' E 021°15'1616.3
2014-Jul-23 02:33N 58°49' E 021°26'1616.2
2014-Jul-23 01:33N 59°04' E 021°35'1616.2
2014-Jul-23 00:33N 59°16' E 021°58'1616.2
2014-Jul-22 23:33N 59°25' E 022°23'1615.8
2014-Jul-22 22:33N 59°32' E 022°51'1616.3
2014-Jul-22 21:33N 59°37' E 023°22'1616.2
2014-Jul-22 20:33N 59°41' E 023°53'1816.2
2014-Jul-22 19:25N 59°48' E 024°27'1716.3
2014-Jul-22 18:24N 59°55' E 024°57'1416.4
2014-Jul-22 17:33N 60°07' E 025°12'6 0.3
2014-Jul-21 17:33N 60°13' E 025°12'4 0.4
2014-Jul-21 07:33N 60°09' E 025°12'1917.3
2014-Jul-21 06:26N 59°51' E 024°56'1415.9
2014-Jul-21 05:32N 59°44' E 024°32'1616.4
2014-Jul-21 04:33N 59°39' E 024°01'1616.5
2014-Jul-21 03:34N 59°34' E 023°30'1716.6
2014-Jul-21 02:34N 59°29' E 022°60'1717.0
2014-Jul-21 01:33N 59°22' E 022°29'1717.0
2014-Jul-21 00:34N 59°11' E 022°03'1716.8
2014-Jul-20 23:34N 58°58' E 021°42'1716.8
2014-Jul-20 22:34N 58°43' E 021°30'3917.1
2014-Jul-20 20:19N 58°06' E 021°07'1317.0
2014-Jul-20 19:33N 57°54' E 020°58'1717.2
2014-Jul-20 18:34N 57°38' E 020°49'1717.0
2014-Jul-20 17:34N 57°22' E 020°39'1716.8
2014-Jul-20 16:34N 57°06' E 020°29'1716.9
2014-Jul-20 15:34N 56°50' E 020°18'1716.9
2014-Jul-20 14:34N 56°34' E 020°08'1717.1
2014-Jul-20 13:34N 56°18' E 019°57'1716.7
2014-Jul-20 12:34N 56°02' E 019°48'1716.8
2014-Jul-20 11:34N 55°46' E 019°38'1716.8
2014-Jul-20 10:34N 55°30' E 019°28'1716.8
2014-Jul-20 09:34N 55°15' E 019°18'1716.8
2014-Jul-20 08:34N 54°59' E 019°09'1716.9
2014-Jul-20 07:34N 54°43' E 018°59'1515.1
2014-Jul-20 06:34N 54°32' E 018°41'6 5.5
2014-Jul-20 05:31N 54°32' E 018°31'0 0.0
2014-Jul-20 04:31N 54°32' E 018°31'0 0.0
2014-Jul-20 03:31N 54°32' E 018°31'0 0.0
2014-Jul-20 02:31N 54°32' E 018°31'0 0.0
2014-Jul-20 01:31N 54°32' E 018°31'0 0.0
2014-Jul-20 00:31N 54°32' E 018°31'0 0.0
2014-Jul-19 23:31N 54°32' E 018°31'0 0.0
2014-Jul-19 22:31N 54°32' E 018°31'0 0.0
2014-Jul-19 21:31N 54°32' E 018°31'0 0.2
2014-Jul-19 20:33N 54°32' E 018°32'8 8.0
2014-Jul-19 19:33N 54°32' E 018°45'1515.4
2014-Jul-19 18:33N 54°46' E 018°59'1616.1
2014-Jul-19 17:34N 55°01' E 019°08'1616.3
2014-Jul-19 16:34N 55°16' E 019°17'1616.5
2014-Jul-19 15:34N 55°32' E 019°26'1716.5
2014-Jul-19 14:33N 55°48' E 019°35'1616.5
2014-Jul-19 13:34N 56°03' E 019°44'1616.5
2014-Jul-19 12:34N 56°19' E 019°53'1616.2
2014-Jul-19 11:34N 56°34' E 020°02'1616.1
2014-Jul-19 10:33N 56°50' E 020°11'1816.2
2014-Jul-19 09:28N 57°07' E 020°21'15116.1
2014-Jul-19 00:04N 59°24' E 022°20'816.0
2014-Jul-18 23:34N 59°29' E 022°32'1615.8
2014-Jul-18 22:34N 59°34' E 023°02'1716.5
2014-Jul-18 21:33N 59°39' E 023°33'1716.5
2014-Jul-18 20:33N 59°43' E 024°05'1716.8
2014-Jul-18 19:33N 59°49' E 024°36'1616.3
2014-Jul-18 18:33N 59°58' E 025°03'1515.0
2014-Jul-18 17:33N 60°12' E 025°13'1 0.6
2014-Jul-18 16:08N 60°13' E 025°12'1 0.1
2014-Jul-18 05:29N 60°12' E 025°13'1414.7
2014-Jul-18 04:32N 59°59' E 025°04'2216.1
2014-Jul-18 03:10N 59°45' E 024°31'1016.7
2014-Jul-18 02:33N 59°42' E 024°11'1716.6
2014-Jul-18 01:31N 59°37' E 023°39'1616.8
2014-Jul-18 00:33N 59°31' E 023°08'1716.7
2014-Jul-17 23:32N 59°26' E 022°37'5016.6
2014-Jul-17 20:33N 58°48' E 021°34'19417.1
2014-Jul-17 09:12N 55°44' E 019°36'1416.9
2014-Jul-17 08:21N 55°30' E 019°28'1316.9
2014-Jul-17 07:33N 55°18' E 019°21'1716.9
2014-Jul-17 06:33N 55°02' E 019°11'1716.9
2014-Jul-17 05:33N 54°46' E 019°01'1616.5
2014-Jul-17 04:33N 54°32' E 018°47'9 8.8
2014-Jul-17 03:32N 54°32' E 018°31'0 0.0
2014-Jul-17 02:32N 54°32' E 018°31'0 0.0
2014-Jul-17 01:32N 54°32' E 018°31'0 0.0
2014-Jul-17 00:32N 54°32' E 018°31'0 0.0
2014-Jul-16 23:32N 54°32' E 018°31'0 0.0
2014-Jul-16 22:32N 54°32' E 018°31'0 0.0
2014-Jul-16 21:32N 54°32' E 018°31'0 0.0
2014-Jul-16 20:32N 54°32' E 018°31'5 4.8
2014-Jul-16 19:33N 54°32' E 018°39'1413.9
2014-Jul-16 18:33N 54°42' E 018°57'1616.0
2014-Jul-16 17:33N 54°57' E 019°06'1616.2
2014-Jul-16 16:33N 55°12' E 019°15'1616.5
2014-Jul-16 15:33N 55°28' E 019°23'27215.9
2014-Jul-15 22:29N 59°34' E 022°58'1516.5
2014-Jul-15 21:33N 59°39' E 023°26'2016.5
2014-Jul-15 20:21N 59°44' E 024°04'1416.7
2014-Jul-15 19:32N 59°48' E 024°30'1616.7
2014-Jul-15 18:33N 59°55' E 024°59'1815.7
2014-Jul-15 17:24N 60°12' E 025°13'1 0.1
2014-Jul-15 02:31N 60°13' E 025°12'0 0.0
2014-Jul-15 01:31N 60°13' E 025°12'0 0.0
2014-Jul-15 00:31N 60°13' E 025°12'  
Track history (hours):
 
Tides and Currents Weather Stations Pressure Air Temp Water Temp Dewpoint Dewpoint Depression Visibility Wind Speed Wind Dir Waves Ship Positions

Baltica

Last reported at 2014-Jul-24 19:33 UTC. Time now 2014-Jul-24 20:06 UTC.
Position N 58°30' E 021°22'.

Length 157 m; draft 6.6 m.

Type: Ship (hazmat cat A). MMSI: 215013000.

Date/timePositionNaut miles runAvg speedWind from/ knotsBaromVisibWave heightAir tempDewpointWater temp
2014-Jul-24 19:33N 58°30' E 021°22'1717.0
2014-Jul-24 18:33N 58°14' E 021°12'1817.1
2014-Jul-24 17:32N 57°57' E 021°01'1717.1
2014-Jul-24 16:33N 57°42' E 020°51'1717.0
2014-Jul-24 15:33N 57°26' E 020°40'1716.6
2014-Jul-24 14:34N 57°10' E 020°30'1717.1
2014-Jul-24 13:33N 56°54' E 020°20'1717.3
2014-Jul-24 12:34N 56°37' E 020°10'1717.2
2014-Jul-24 11:34N 56°21' E 019°59'1717.2
2014-Jul-24 10:33N 56°05' E 019°50'1717.2
2014-Jul-24 09:34N 55°49' E 019°40'1717.3
2014-Jul-24 08:34N 55°32' E 019°29'1717.3
2014-Jul-24 07:34N 55°16' E 019°19'1716.9
2014-Jul-24 06:33N 55°00' E 019°10'1717.1
2014-Jul-24 05:34N 54°44' E 019°00'1615.6
2014-Jul-24 04:34N 54°32' E 018°44'7 7.1
2014-Jul-24 03:33N 54°32' E 018°31'0 0.0
2014-Jul-24 02:32N 54°32' E 018°31'0 0.0
2014-Jul-24 01:32N 54°32' E 018°31'0 0.0
2014-Jul-24 00:32N 54°32' E 018°31'0 0.0
2014-Jul-23 23:32N 54°32' E 018°31'0 0.0
2014-Jul-23 22:32N 54°32' E 018°31'0 0.0
2014-Jul-23 21:32N 54°32' E 018°31'0 0.0
2014-Jul-23 20:32N 54°32' E 018°31'5 4.8
2014-Jul-23 19:33N 54°32' E 018°39'1414.3
2014-Jul-23 18:33N 54°42' E 018°57'1616.3
2014-Jul-23 17:33N 54°58' E 019°06'1616.4
2014-Jul-23 16:33N 55°13' E 019°15'1716.6
2014-Jul-23 15:33N 55°29' E 019°24'1616.3
2014-Jul-23 14:33N 55°44' E 019°33'1616.1
2014-Jul-23 13:33N 55°60' E 019°41'1616.3
2014-Jul-23 12:33N 56°15' E 019°50'1616.1
2014-Jul-23 11:33N 56°31' E 019°59'1616.0
2014-Jul-23 10:33N 56°46' E 020°08'1616.1
2014-Jul-23 09:33N 57°01' E 020°18'3216.2
2014-Jul-23 07:33N 57°32' E 020°36'1716.3
2014-Jul-23 06:31N 57°48' E 020°46'1516.0
2014-Jul-23 05:33N 58°03' E 020°55'3216.2
2014-Jul-23 03:33N 58°33' E 021°15'1616.3
2014-Jul-23 02:33N 58°49' E 021°26'1616.2
2014-Jul-23 01:33N 59°04' E 021°35'1616.2
2014-Jul-23 00:33N 59°16' E 021°58'1616.2
2014-Jul-22 23:33N 59°25' E 022°23'1615.8
2014-Jul-22 22:33N 59°32' E 022°51'1616.3
2014-Jul-22 21:33N 59°37' E 023°22'1616.2
2014-Jul-22 20:33N 59°41' E 023°53'1816.2
2014-Jul-22 19:25N 59°48' E 024°27'1716.3
2014-Jul-22 18:24N 59°55' E 024°57'1416.4
2014-Jul-22 17:33N 60°07' E 025°12'6 0.3
2014-Jul-21 17:33N 60°13' E 025°12'4 0.4
2014-Jul-21 07:33N 60°09' E 025°12'1917.3
2014-Jul-21 06:26N 59°51' E 024°56'1415.9
2014-Jul-21 05:32N 59°44' E 024°32'1616.4
2014-Jul-21 04:33N 59°39' E 024°01'1616.5
2014-Jul-21 03:34N 59°34' E 023°30'1716.6
2014-Jul-21 02:34N 59°29' E 022°60'1717.0
2014-Jul-21 01:33N 59°22' E 022°29'1717.0
2014-Jul-21 00:34N 59°11' E 022°03'1716.8
2014-Jul-20 23:34N 58°58' E 021°42'1716.8
2014-Jul-20 22:34N 58°43' E 021°30'3917.1
2014-Jul-20 20:19N 58°06' E 021°07'1317.0
2014-Jul-20 19:33N 57°54' E 020°58'1717.2
2014-Jul-20 18:34N 57°38' E 020°49'1717.0
2014-Jul-20 17:34N 57°22' E 020°39'1716.8
2014-Jul-20 16:34N 57°06' E 020°29'1716.9
2014-Jul-20 15:34N 56°50' E 020°18'1716.9
2014-Jul-20 14:34N 56°34' E 020°08'1717.1
2014-Jul-20 13:34N 56°18' E 019°57'1716.7
2014-Jul-20 12:34N 56°02' E 019°48'1716.8
2014-Jul-20 11:34N 55°46' E 019°38'1716.8
2014-Jul-20 10:34N 55°30' E 019°28'1716.8
2014-Jul-20 09:34N 55°15' E 019°18'1716.8
2014-Jul-20 08:34N 54°59' E 019°09'1716.9
2014-Jul-20 07:34N 54°43' E 018°59'1515.1
2014-Jul-20 06:34N 54°32' E 018°41'6 5.5
2014-Jul-20 05:31N 54°32' E 018°31'0 0.0
2014-Jul-20 04:31N 54°32' E 018°31'0 0.0
2014-Jul-20 03:31N 54°32' E 018°31'0 0.0
2014-Jul-20 02:31N 54°32' E 018°31'0 0.0
2014-Jul-20 01:31N 54°32' E 018°31'0 0.0
2014-Jul-20 00:31N 54°32' E 018°31'0 0.0
2014-Jul-19 23:31N 54°32' E 018°31'0 0.0
2014-Jul-19 22:31N 54°32' E 018°31'0 0.0
2014-Jul-19 21:31N 54°32' E 018°31'0 0.2
2014-Jul-19 20:33N 54°32' E 018°32'8 8.0
2014-Jul-19 19:33N 54°32' E 018°45'1515.4
2014-Jul-19 18:33N 54°46' E 018°59'1616.1
2014-Jul-19 17:34N 55°01' E 019°08'1616.3
2014-Jul-19 16:34N 55°16' E 019°17'1616.5
2014-Jul-19 15:34N 55°32' E 019°26'1716.5
2014-Jul-19 14:33N 55°48' E 019°35'1616.5
2014-Jul-19 13:34N 56°03' E 019°44'1616.5
2014-Jul-19 12:34N 56°19' E 019°53'1616.2
2014-Jul-19 11:34N 56°34' E 020°02'1616.1
2014-Jul-19 10:33N 56°50' E 020°11'1816.2
2014-Jul-19 09:28N 57°07' E 020°21'15116.1
2014-Jul-19 00:04N 59°24' E 022°20'816.0
2014-Jul-18 23:34N 59°29' E 022°32'1615.8
2014-Jul-18 22:34N 59°34' E 023°02'1716.5
2014-Jul-18 21:33N 59°39' E 023°33'1716.5
2014-Jul-18 20:33N 59°43' E 024°05'1716.8
2014-Jul-18 19:33N 59°49' E 024°36'1616.3
2014-Jul-18 18:33N 59°58' E 025°03'1515.0
2014-Jul-18 17:33N 60°12' E 025°13'1 0.6
2014-Jul-18 16:08N 60°13' E 025°12'1 0.1
2014-Jul-18 05:29N 60°12' E 025°13'1414.7
2014-Jul-18 04:32N 59°59' E 025°04'2216.1
2014-Jul-18 03:10N 59°45' E 024°31'1016.7
2014-Jul-18 02:33N 59°42' E 024°11'1716.6
2014-Jul-18 01:31N 59°37' E 023°39'1616.8
2014-Jul-18 00:33N 59°31' E 023°08'1716.7
2014-Jul-17 23:32N 59°26' E 022°37'5016.6
2014-Jul-17 20:33N 58°48' E 021°34'19417.1
2014-Jul-17 09:12N 55°44' E 019°36'1416.9
2014-Jul-17 08:21N 55°30' E 019°28'1316.9
2014-Jul-17 07:33N 55°18' E 019°21'1716.9
2014-Jul-17 06:33N 55°02' E 019°11'1716.9
2014-Jul-17 05:33N 54°46' E 019°01'1616.5
2014-Jul-17 04:33N 54°32' E 018°47'9 8.8
2014-Jul-17 03:32N 54°32' E 018°31'0 0.0
2014-Jul-17 02:32N 54°32' E 018°31'0 0.0
2014-Jul-17 01:32N 54°32' E 018°31'0 0.0
2014-Jul-17 00:32N 54°32' E 018°31'0 0.0
2014-Jul-16 23:32N 54°32' E 018°31'0 0.0
2014-Jul-16 22:32N 54°32' E 018°31'0 0.0
2014-Jul-16 21:32N 54°32' E 018°31'0 0.0
2014-Jul-16 20:32N 54°32' E 018°31'5 4.8
2014-Jul-16 19:33N 54°32' E 018°39'1413.9
2014-Jul-16 18:33N 54°42' E 018°57'1616.0
2014-Jul-16 17:33N 54°57' E 019°06'1616.2
2014-Jul-16 16:33N 55°12' E 019°15'1616.5
2014-Jul-16 15:33N 55°28' E 019°23'27215.9
2014-Jul-15 22:29N 59°34' E 022°58'1516.5
2014-Jul-15 21:33N 59°39' E 023°26'2016.5
2014-Jul-15 20:21N 59°44' E 024°04'1416.7
2014-Jul-15 19:32N 59°48' E 024°30'1616.7
2014-Jul-15 18:33N 59°55' E 024°59'1815.7
2014-Jul-15 17:24N 60°12' E 025°13'1 0.1
2014-Jul-15 02:31N 60°13' E 025°12'0 0.0
2014-Jul-15 01:31N 60°13' E 025°12'0 0.0
2014-Jul-15 00:31N 60°13' E 025°12'  

Dump ship's entire track history